createdAt,value
2023-01-05T00:03:14.199Z,101902.94
2023-01-05T00:08:13.607Z,101893.22
2023-01-05T00:13:31.261Z,101892.56
2023-01-05T00:18:47.444Z,101893.22
2023-01-05T00:23:47.370Z,101883.06
2023-01-05T00:28:47.549Z,101875.69
2023-01-05T00:33:46.333Z,101855.22
2023-01-05T00:38:45.205Z,101848.53
2023-01-05T00:43:44.069Z,101850.56
2023-01-05T00:48:44.356Z,101840.91
2023-01-05T00:53:43.122Z,101840.16
2023-01-05T00:58:41.867Z,101840.13
2023-01-05T01:03:41.489Z,101836.09
2023-01-05T01:08:42.646Z,101831.59
2023-01-05T01:13:41.397Z,101821.88
2023-01-05T01:18:40.467Z,101815.31
2023-01-05T01:23:39.295Z,101815.28
2023-01-05T01:28:40.200Z,101809.06
2023-01-05T01:33:40.832Z,101798.94
2023-01-05T01:38:39.875Z,101794.06
2023-01-05T01:43:46.262Z,101785.00
2023-01-05T01:48:52.163Z,101789.19
2023-01-05T01:53:54.015Z,101772.13
2023-01-05T01:58:55.418Z,101777.28
2023-01-05T02:03:55.223Z,101774.22
2023-01-05T02:08:54.847Z,101747.03
2023-01-05T02:14:09.164Z,101735.63
2023-01-05T02:19:36.989Z,101730.44
2023-01-05T02:24:52.805Z,101729.38
2023-01-05T02:30:16.379Z,101712.53
2023-01-05T02:35:28.509Z,101715.91
2023-01-05T02:40:33.214Z,101713.41
2023-01-05T02:45:32.527Z,101725.00
2023-01-05T02:50:39.799Z,101698.63
2023-01-05T02:55:46.540Z,101698.34
2023-01-05T03:00:51.938Z,101684.91
2023-01-05T03:05:59.665Z,101678.31
2023-01-05T03:11:20.564Z,101668.53
2023-01-05T03:16:26.548Z,101654.00
2023-01-05T03:21:30.733Z,101643.59
2023-01-05T03:26:50.331Z,101634.63
2023-01-05T03:32:10.220Z,101637.88
2023-01-05T03:37:16.675Z,101632.22
2023-01-05T03:42:17.333Z,101626.94
2023-01-05T03:47:16.501Z,101621.97
2023-01-05T03:52:17.992Z,101623.91
2023-01-05T03:57:17.445Z,101620.91
2023-01-05T04:02:17.082Z,101609.41
2023-01-05T04:07:18.649Z,101603.81
2023-01-05T04:12:17.652Z,101611.31
2023-01-05T04:17:17.584Z,101601.84
2023-01-05T04:22:23.671Z,101596.78
2023-01-05T04:27:27.187Z,101588.97
2023-01-05T04:32:26.111Z,101594.06
2023-01-05T04:37:27.144Z,101594.91
2023-01-05T04:42:26.502Z,101588.34
2023-01-05T04:47:27.308Z,101579.81
2023-01-05T04:52:29.285Z,101572.25
2023-01-05T04:57:28.856Z,101568.91
2023-01-05T05:02:28.084Z,101565.97
2023-01-05T05:07:28.584Z,101557.25
2023-01-05T05:12:27.471Z,101553.72
2023-01-05T05:17:26.428Z,101536.84
2023-01-05T05:22:26.507Z,101530.56
2023-01-05T05:27:26.764Z,101524.06
2023-01-05T05:32:27.175Z,101524.06
2023-01-05T05:37:25.926Z,101517.28
2023-01-05T05:42:26.193Z,101520.34
2023-01-05T05:47:25.100Z,101512.28
2023-01-05T05:52:24.042Z,101486.88
2023-01-05T05:57:22.900Z,101481.66
2023-01-05T06:02:23.114Z,101479.75
2023-01-05T06:07:21.877Z,101465.22
2023-01-05T06:12:20.705Z,101450.25
2023-01-05T06:17:19.698Z,101450.25
2023-01-05T06:22:19.822Z,101446.56
2023-01-05T06:27:18.563Z,101450.09
2023-01-05T06:32:17.424Z,101456.16
2023-01-05T06:37:16.304Z,101443.19
2023-01-05T06:42:23.023Z,101432.81
2023-01-05T06:47:22.367Z,101419.50
2023-01-05T06:52:21.235Z,101418.56
2023-01-05T06:57:21.429Z,101423.69
2023-01-05T07:02:20.251Z,101417.00
2023-01-05T07:07:19.102Z,101420.75
2023-01-05T07:12:18.064Z,101401.94
2023-01-05T07:17:18.301Z,101411.78
2023-01-05T07:22:16.989Z,101407.84
2023-01-05T07:27:15.761Z,101405.91
2023-01-05T07:32:14.527Z,101399.31
2023-01-05T07:37:14.667Z,101382.19
2023-01-05T07:42:13.503Z,101379.19
2023-01-05T07:47:13.538Z,101377.97
2023-01-05T07:52:12.321Z,101378.84
2023-01-05T07:57:12.560Z,101373.16
2023-01-05T08:02:12.142Z,101376.72
2023-01-05T08:07:11.687Z,101372.44
2023-01-05T08:12:10.529Z,101372.91
2023-01-05T08:17:11.491Z,101358.56
2023-01-05T08:22:10.299Z,101354.63
2023-01-05T08:27:09.574Z,101351.47
2023-01-05T08:32:08.866Z,101338.69
2023-01-05T08:37:09.170Z,101339.97
2023-01-05T08:42:07.949Z,101338.28
2023-01-05T08:47:06.723Z,101335.72
2023-01-05T08:52:07.500Z,101330.97
2023-01-05T08:57:07.749Z,101316.81
2023-01-05T09:02:06.711Z,101312.53
2023-01-05T09:07:05.806Z,101302.94
2023-01-05T09:12:04.918Z,101303.00
2023-01-05T09:17:07.452Z,101275.53
2023-01-05T09:22:06.573Z,101264.34
2023-01-05T09:27:07.712Z,101251.25
2023-01-05T09:32:09.764Z,101238.41
2023-01-05T09:37:08.681Z,101220.84
2023-01-05T09:42:13.196Z,101217.88
2023-01-05T09:47:19.452Z,101207.19
2023-01-05T09:52:22.460Z,101191.06
2023-01-05T09:57:25.080Z,101171.69
2023-01-05T10:02:33.972Z,101157.94
2023-01-05T10:07:41.579Z,101145.97
2023-01-05T10:13:03.501Z,101129.34
2023-01-05T10:18:11.758Z,101119.63
2023-01-05T10:23:19.927Z,101112.66
2023-01-05T10:28:29.966Z,101097.34
2023-01-05T10:33:53.589Z,101083.22
2023-01-05T10:39:00.943Z,101053.31
2023-01-05T10:44:22.254Z,101049.59
2023-01-05T10:49:26.960Z,101038.38
2023-01-05T10:54:35.413Z,101047.66
2023-01-05T10:59:34.282Z,101050.31
2023-01-05T11:04:35.824Z,101041.22
2023-01-05T11:09:41.496Z,101046.06
2023-01-05T11:14:44.773Z,101019.47
2023-01-05T11:19:48.149Z,101015.31
2023-01-05T11:24:51.149Z,101012.59
2023-01-05T11:30:11.337Z,101022.88
2023-01-05T11:35:19.715Z,101059.34
2023-01-05T11:40:20.489Z,101072.97
2023-01-05T11:45:22.157Z,101071.94
2023-01-05T11:50:26.142Z,101031.16
2023-01-05T11:55:34.017Z,101009.19
2023-01-05T12:00:40.271Z,100995.03
2023-01-05T12:05:49.810Z,100992.13
2023-01-05T12:11:01.782Z,100998.13
2023-01-05T12:16:13.804Z,100970.88
2023-01-05T12:21:23.892Z,100953.59
2023-01-05T12:26:28.286Z,100956.47
2023-01-05T12:37:23.832Z,100949.31
2023-01-05T12:42:54.351Z,100944.09
2023-01-05T12:47:59.794Z,100920.53
2023-01-05T12:53:08.952Z,100915.31
2023-01-05T12:58:15.107Z,100906.22
2023-01-05T13:03:23.812Z,100895.22
2023-01-05T13:08:28.430Z,100911.50
2023-01-05T13:13:32.230Z,100892.16
2023-01-05T13:18:33.950Z,100902.41
2023-01-05T13:23:38.738Z,100911.53
2023-01-05T13:28:38.709Z,100879.75
2023-01-05T13:33:57.243Z,100890.47
2023-01-05T13:39:28.298Z,100892.03
2023-01-05T13:45:05.344Z,100892.75
2023-01-05T13:50:27.597Z,100877.59
2023-01-05T13:55:28.767Z,100882.69
2023-01-05T14:00:30.381Z,100885.81
2023-01-05T14:05:33.453Z,100874.41
2023-01-05T14:10:35.281Z,100878.53
2023-01-05T14:15:40.434Z,100874.94
2023-01-05T14:20:47.139Z,100854.44
2023-01-05T14:25:52.858Z,100839.66
2023-01-05T14:30:52.972Z,100831.34
2023-01-05T14:35:51.754Z,100827.22
2023-01-05T14:40:55.927Z,100815.78
2023-01-05T14:46:06.054Z,100798.78
2023-01-05T14:51:14.485Z,100782.28
2023-01-05T14:56:21.105Z,100787.72
2023-01-05T15:01:25.775Z,100798.47
2023-01-05T15:06:36.763Z,100790.84
2023-01-05T15:11:49.140Z,100786.75
2023-01-05T15:17:15.852Z,100778.69
2023-01-05T15:22:37.937Z,100802.28
2023-01-05T15:28:13.154Z,100774.69
2023-01-05T15:33:22.015Z,100787.22
2023-01-05T15:38:22.753Z,100778.44
2023-01-05T15:43:22.411Z,100788.81
2023-01-05T15:48:28.946Z,100785.78
2023-01-05T15:53:32.014Z,100762.97
2023-01-05T15:58:31.646Z,100758.00
2023-01-05T16:03:33.466Z,100769.63
2023-01-05T16:08:35.014Z,100768.78
2023-01-05T16:13:38.470Z,100765.13
2023-01-05T16:18:45.984Z,100762.84
2023-01-05T16:23:50.322Z,100768.72
2023-01-05T16:28:49.054Z,100768.53
2023-01-05T16:34:03.535Z,100759.03
2023-01-05T16:39:24.174Z,100759.88
2023-01-05T16:44:22.975Z,100766.59
2023-01-05T16:49:39.107Z,100790.97
2023-01-05T16:54:44.386Z,100813.03
2023-01-05T16:59:46.941Z,100804.00
2023-01-05T17:04:48.777Z,100824.94
2023-01-05T17:09:47.828Z,100808.75
2023-01-05T17:14:46.870Z,100809.16
2023-01-05T17:19:51.539Z,100810.91
2023-01-05T17:24:50.742Z,100814.06
2023-01-05T17:29:49.545Z,100818.44
2023-01-05T17:34:50.856Z,100807.91
2023-01-05T17:39:49.661Z,100810.72
2023-01-05T17:44:48.392Z,100797.44
2023-01-05T17:49:47.222Z,100806.63
2023-01-05T17:54:47.349Z,100793.25
2023-01-05T17:59:46.103Z,100805.47
2023-01-05T18:04:44.861Z,100796.44
2023-01-05T18:09:43.666Z,100804.06
2023-01-05T18:14:44.956Z,100807.41
2023-01-05T18:19:43.893Z,100811.53
2023-01-05T18:24:43.839Z,100796.28
2023-01-05T18:29:45.429Z,100787.22
2023-01-05T18:34:44.300Z,100789.38
2023-01-05T18:39:43.466Z,100788.47
2023-01-05T18:44:43.706Z,100795.34
2023-01-05T18:49:42.452Z,100808.44
2023-01-05T18:54:41.288Z,100791.16
2023-01-05T18:59:40.164Z,100796.56
2023-01-05T19:04:40.301Z,100787.59
2023-01-05T19:09:39.314Z,100798.66
2023-01-05T19:14:38.220Z,100802.41
2023-01-05T19:19:37.166Z,100792.81
2023-01-05T19:24:37.437Z,100796.66
2023-01-05T19:29:36.227Z,100788.53
2023-01-05T19:34:35.075Z,100805.25
2023-01-05T19:39:34.770Z,100813.69
2023-01-05T19:44:35.098Z,100809.09
2023-01-05T19:49:34.498Z,100812.28
2023-01-05T19:54:33.417Z,100819.25
2023-01-05T19:59:34.096Z,100809.97
2023-01-05T20:04:34.744Z,100820.31
2023-01-05T20:09:33.791Z,100818.31
2023-01-05T20:14:34.379Z,100821.84
2023-01-05T20:19:36.651Z,100817.19
2023-01-05T20:24:37.443Z,100828.81
2023-01-05T20:29:36.412Z,100829.53
2023-01-05T20:34:39.252Z,100842.59
2023-01-05T20:39:40.201Z,100822.78
2023-01-05T20:44:41.755Z,100822.28
2023-01-05T20:49:42.675Z,100821.19
2023-01-05T20:54:42.334Z,100819.94
2023-01-05T20:59:41.507Z,100812.81
2023-01-05T21:04:42.146Z,100823.06
2023-01-05T21:09:42.641Z,100816.06
2023-01-05T21:14:41.411Z,100820.16
2023-01-05T21:19:41.607Z,100811.00
2023-01-05T21:24:42.200Z,100810.19
2023-01-05T21:29:41.084Z,100813.00
2023-01-05T21:34:41.290Z,100812.59
2023-01-05T21:39:40.163Z,100810.06
2023-01-05T21:44:39.894Z,100831.78
2023-01-05T21:49:38.703Z,100832.53
2023-01-05T21:54:56.253Z,100848.88
2023-01-05T21:59:55.309Z,100834.13
2023-01-05T22:04:54.066Z,100862.22
2023-01-05T22:09:54.200Z,100864.16
2023-01-05T22:14:52.957Z,100849.66
2023-01-05T22:19:53.391Z,100867.88
2023-01-05T22:24:53.574Z,100853.72
2023-01-05T22:29:52.571Z,100845.81
2023-01-05T22:34:51.403Z,100840.59
2023-01-05T22:39:50.221Z,100865.94
2023-01-05T22:44:50.407Z,100845.81
2023-01-05T22:49:49.293Z,100842.56
2023-01-05T22:54:48.069Z,100852.59
2023-01-05T22:59:46.941Z,100851.41
2023-01-05T23:04:47.282Z,100854.19
2023-01-05T23:09:46.089Z,100849.19
2023-01-05T23:14:44.851Z,100855.38
2023-01-05T23:19:43.549Z,100874.13
2023-01-05T23:24:43.764Z,100879.81
2023-01-05T23:29:42.561Z,100877.84
2023-01-05T23:34:41.316Z,100890.53
2023-01-05T23:39:40.114Z,100884.28
2023-01-05T23:44:40.249Z,100881.81
2023-01-05T23:49:40.121Z,100892.31
2023-01-05T23:54:39.082Z,100875.19
2023-01-05T23:59:39.222Z,100873.13
